MOL Sparkle — 3EWX3 — position and weather

sailwx.info

Track history (hours):
 
Tides and Currents Weather Stations Pressure Air Temp Water Temp Dewpoint Dewpoint Depression Visibility Wind Speed Wind Dir Waves Ship Positions

MOL Sparkle

Last reported at 2018-Jun-09 10:28 UTC. Time now 2018-Jun-21 11:55 UTC.
Position N 33°48' E 134°50'.
Warning: this ship's position is 12 days out of date.

Length 199 m; draft 9.2 m.

Type: Ship (hazmat cat B). MMSI: 372800000.

Date/timePositionNaut miles runAvg speedWind from/ knotsBaromVisibWave heightAir tempDewpointWater temp
2018-Jun-09 10:28N 33°48' E 134°50'917.8
2018-Jun-09 09:59N 33°55' E 134°55'917.8
2018-Jun-09 09:30N 34°04' E 134°55'917.8
2018-Jun-09 09:00N 34°13' E 134°57'613.0
2018-Jun-09 08:31N 34°19' E 134°59'917.0
2018-Jun-09 08:00N 34°26' E 135°04'918.0
2018-Jun-09 07:31N 34°32' E 135°12'815.9
2018-Jun-09 07:00N 34°40' E 135°15'1 1.5
2018-Jun-09 06:26N 34°41' E 135°16'0 0.0
2018-Jun-09 05:56N 34°41' E 135°16'0 0.0
2018-Jun-09 05:26N 34°41' E 135°16'0 0.0
2018-Jun-09 04:56N 34°41' E 135°16'0 0.0
2018-Jun-09 04:29N 34°41' E 135°16'0 0.0
2018-Jun-09 03:59N 34°41' E 135°16'0 0.0
2018-Jun-09 03:29N 34°41' E 135°16'0 0.0
2018-Jun-09 02:59N 34°41' E 135°16'0 0.0
2018-Jun-09 02:26N 34°41' E 135°16'0 0.0
2018-Jun-09 01:59N 34°41' E 135°16'0 0.0
2018-Jun-09 01:29N 34°41' E 135°16'0 0.0
2018-Jun-09 00:56N 34°41' E 135°16'0 0.0
2018-Jun-09 00:29N 34°41' E 135°16'0 0.0
2018-Jun-08 23:59N 34°41' E 135°16'0 0.0
2018-Jun-08 23:29N 34°41' E 135°16'0 0.0
2018-Jun-08 22:59N 34°41' E 135°16'0 0.0
2018-Jun-08 22:26N 34°41' E 135°16'0 1.0
2018-Jun-08 22:00N 34°40' E 135°15'4 7.6
2018-Jun-08 21:30N 34°37' E 135°16'815.5
2018-Jun-08 21:00N 34°30' E 135°11'816.9
2018-Jun-08 20:30N 34°24' E 135°05'917.1
2018-Jun-08 20:00N 34°17' E 134°59'714.5
2018-Jun-08 19:30N 34°09' E 134°59'5 9.2
2018-Jun-08 19:00N 34°05' E 134°58'510.6
2018-Jun-08 18:30N 33°59' E 134°58'510.4
2018-Jun-08 18:00N 33°54' E 134°57'510.7
2018-Jun-08 17:30N 33°49' E 134°56'611.1
2018-Jun-08 17:00N 33°44' E 134°58'611.1
2018-Jun-08 16:29N 33°38' E 135°00'  
2018-Jun-06 11:58N 33°45' E 135°03'918.6
2018-Jun-06 11:28N 33°53' E 134°58'817.6
2018-Jun-06 11:00N 34°01' E 134°57'917.6
2018-Jun-06 10:29N 34°10' E 134°57'612.9
2018-Jun-06 10:00N 34°16' E 134°58'917.4
2018-Jun-06 09:30N 34°24' E 135°03'919.1
2018-Jun-06 09:00N 34°30' E 135°12'918.5
2018-Jun-06 08:30N 34°36' E 135°20'510.6
2018-Jun-06 08:00N 34°39' E 135°26'0 0.2
2018-Jun-06 07:23N 34°39' E 135°26'0 0.0
2018-Jun-06 06:59N 34°39' E 135°26'0 0.0
2018-Jun-06 06:29N 34°39' E 135°26'0 0.0
2018-Jun-06 05:53N 34°39' E 135°26'0 0.0
2018-Jun-06 05:11N 34°39' E 135°26'0 0.0
2018-Jun-06 04:59N 34°39' E 135°26'0 0.0
2018-Jun-06 04:17N 34°39' E 135°26'0 0.0
2018-Jun-06 03:53N 34°39' E 135°26'0 0.0
2018-Jun-06 03:29N 34°39' E 135°26'0 0.0
2018-Jun-06 02:53N 34°39' E 135°26'0 0.0
2018-Jun-06 02:29N 34°39' E 135°26'0 0.0
2018-Jun-06 01:53N 34°39' E 135°26'0 0.0
2018-Jun-06 01:29N 34°39' E 135°26'0 0.0
2018-Jun-06 00:59N 34°39' E 135°26'0 0.0
2018-Jun-06 00:29N 34°39' E 135°26'0 0.0
2018-Jun-05 23:53N 34°39' E 135°26'0 0.0
2018-Jun-05 23:23N 34°39' E 135°26'0 0.0
2018-Jun-05 22:59N 34°39' E 135°26'1 2.1
2018-Jun-05 22:30N 34°39' E 135°25'3 5.8
2018-Jun-05 22:01N 34°37' E 135°22'3 5.6
2018-Jun-05 21:31N 34°38' E 135°18'3 6.0
2018-Jun-05 21:01N 34°41' E 135°17'0 0.0
2018-Jun-05 20:30N 34°41' E 135°17'0 0.0
2018-Jun-05 20:00N 34°41' E 135°17'0 0.0
2018-Jun-05 19:30N 34°41' E 135°17'0 0.0
2018-Jun-05 19:00N 34°41' E 135°17'0 0.0
2018-Jun-05 18:30N 34°41' E 135°17'0 0.0
2018-Jun-05 18:00N 34°41' E 135°17'0 0.0
2018-Jun-05 17:30N 34°41' E 135°17'0 0.0
2018-Jun-05 17:00N 34°41' E 135°17'0 0.0
2018-Jun-05 16:30N 34°41' E 135°17'0 0.0
2018-Jun-05 16:00N 34°41' E 135°17'0 0.0
2018-Jun-05 15:30N 34°41' E 135°17'0 0.0
2018-Jun-05 15:00N 34°41' E 135°17'0 0.0
2018-Jun-05 14:30N 34°41' E 135°17'0 0.0
2018-Jun-05 14:00N 34°41' E 135°17'0 0.0
2018-Jun-05 13:30N 34°41' E 135°17'0 0.0
2018-Jun-05 12:57N 34°41' E 135°17'0 0.0
2018-Jun-05 12:30N 34°41' E 135°17'0 0.0
2018-Jun-05 12:00N 34°41' E 135°17'0 0.0
2018-Jun-05 11:30N 34°41' E 135°17'0 0.0
2018-Jun-05 11:00N 34°41' E 135°17'0 0.0
2018-Jun-05 10:30N 34°41' E 135°17'0 0.0
2018-Jun-05 09:57N 34°41' E 135°17'0 0.0
2018-Jun-05 09:30N 34°41' E 135°17'0 0.0
2018-Jun-05 09:00N 34°41' E 135°17'0 0.0
2018-Jun-05 08:30N 34°41' E 135°17'0 0.0
2018-Jun-05 08:00N 34°41' E 135°17'0 0.0
2018-Jun-05 07:30N 34°41' E 135°17'0 0.1
2018-Jun-05 07:01N 34°41' E 135°17'3 6.9
2018-Jun-05 06:30N 34°37' E 135°18'917.2
2018-Jun-05 06:00N 34°31' E 135°12'917.7
2018-Jun-05 05:30N 34°24' E 135°05'918.0
2018-Jun-05 05:00N 34°16' E 134°59'815.1
2018-Jun-05 04:31N 34°09' E 134°59'816.5
2018-Jun-05 04:01N 34°01' E 134°58'816.2
2018-Jun-05 03:31N 33°53' E 134°57'815.0
2018-Jun-05 03:00N 33°45' E 134°54'  
Track history (hours):
 
Tides and Currents Weather Stations Pressure Air Temp Water Temp Dewpoint Dewpoint Depression Visibility Wind Speed Wind Dir Waves Ship Positions

MOL Sparkle

Last reported at 2018-Jun-09 10:28 UTC. Time now 2018-Jun-21 11:55 UTC.
Position N 33°48' E 134°50'.
Warning: this ship's position is 12 days out of date.

Length 199 m; draft 9.2 m.

Type: Ship (hazmat cat B). MMSI: 372800000.

Date/timePositionNaut miles runAvg speedWind from/ knotsBaromVisibWave heightAir tempDewpointWater temp
2018-Jun-09 10:28N 33°48' E 134°50'917.8
2018-Jun-09 09:59N 33°55' E 134°55'917.8
2018-Jun-09 09:30N 34°04' E 134°55'917.8
2018-Jun-09 09:00N 34°13' E 134°57'613.0
2018-Jun-09 08:31N 34°19' E 134°59'917.0
2018-Jun-09 08:00N 34°26' E 135°04'918.0
2018-Jun-09 07:31N 34°32' E 135°12'815.9
2018-Jun-09 07:00N 34°40' E 135°15'1 1.5
2018-Jun-09 06:26N 34°41' E 135°16'0 0.0
2018-Jun-09 05:56N 34°41' E 135°16'0 0.0
2018-Jun-09 05:26N 34°41' E 135°16'0 0.0
2018-Jun-09 04:56N 34°41' E 135°16'0 0.0
2018-Jun-09 04:29N 34°41' E 135°16'0 0.0
2018-Jun-09 03:59N 34°41' E 135°16'0 0.0
2018-Jun-09 03:29N 34°41' E 135°16'0 0.0
2018-Jun-09 02:59N 34°41' E 135°16'0 0.0
2018-Jun-09 02:26N 34°41' E 135°16'0 0.0
2018-Jun-09 01:59N 34°41' E 135°16'0 0.0
2018-Jun-09 01:29N 34°41' E 135°16'0 0.0
2018-Jun-09 00:56N 34°41' E 135°16'0 0.0
2018-Jun-09 00:29N 34°41' E 135°16'0 0.0
2018-Jun-08 23:59N 34°41' E 135°16'0 0.0
2018-Jun-08 23:29N 34°41' E 135°16'0 0.0
2018-Jun-08 22:59N 34°41' E 135°16'0 0.0
2018-Jun-08 22:26N 34°41' E 135°16'0 1.0
2018-Jun-08 22:00N 34°40' E 135°15'4 7.6
2018-Jun-08 21:30N 34°37' E 135°16'815.5
2018-Jun-08 21:00N 34°30' E 135°11'816.9
2018-Jun-08 20:30N 34°24' E 135°05'917.1
2018-Jun-08 20:00N 34°17' E 134°59'714.5
2018-Jun-08 19:30N 34°09' E 134°59'5 9.2
2018-Jun-08 19:00N 34°05' E 134°58'510.6
2018-Jun-08 18:30N 33°59' E 134°58'510.4
2018-Jun-08 18:00N 33°54' E 134°57'510.7
2018-Jun-08 17:30N 33°49' E 134°56'611.1
2018-Jun-08 17:00N 33°44' E 134°58'611.1
2018-Jun-08 16:29N 33°38' E 135°00'  
2018-Jun-06 11:58N 33°45' E 135°03'918.6
2018-Jun-06 11:28N 33°53' E 134°58'817.6
2018-Jun-06 11:00N 34°01' E 134°57'917.6
2018-Jun-06 10:29N 34°10' E 134°57'612.9
2018-Jun-06 10:00N 34°16' E 134°58'917.4
2018-Jun-06 09:30N 34°24' E 135°03'919.1
2018-Jun-06 09:00N 34°30' E 135°12'918.5
2018-Jun-06 08:30N 34°36' E 135°20'510.6
2018-Jun-06 08:00N 34°39' E 135°26'0 0.2
2018-Jun-06 07:23N 34°39' E 135°26'0 0.0
2018-Jun-06 06:59N 34°39' E 135°26'0 0.0
2018-Jun-06 06:29N 34°39' E 135°26'0 0.0
2018-Jun-06 05:53N 34°39' E 135°26'0 0.0
2018-Jun-06 05:11N 34°39' E 135°26'0 0.0
2018-Jun-06 04:59N 34°39' E 135°26'0 0.0
2018-Jun-06 04:17N 34°39' E 135°26'0 0.0
2018-Jun-06 03:53N 34°39' E 135°26'0 0.0
2018-Jun-06 03:29N 34°39' E 135°26'0 0.0
2018-Jun-06 02:53N 34°39' E 135°26'0 0.0
2018-Jun-06 02:29N 34°39' E 135°26'0 0.0
2018-Jun-06 01:53N 34°39' E 135°26'0 0.0
2018-Jun-06 01:29N 34°39' E 135°26'0 0.0
2018-Jun-06 00:59N 34°39' E 135°26'0 0.0
2018-Jun-06 00:29N 34°39' E 135°26'0 0.0
2018-Jun-05 23:53N 34°39' E 135°26'0 0.0
2018-Jun-05 23:23N 34°39' E 135°26'0 0.0
2018-Jun-05 22:59N 34°39' E 135°26'1 2.1
2018-Jun-05 22:30N 34°39' E 135°25'3 5.8
2018-Jun-05 22:01N 34°37' E 135°22'3 5.6
2018-Jun-05 21:31N 34°38' E 135°18'3 6.0
2018-Jun-05 21:01N 34°41' E 135°17'0 0.0
2018-Jun-05 20:30N 34°41' E 135°17'0 0.0
2018-Jun-05 20:00N 34°41' E 135°17'0 0.0
2018-Jun-05 19:30N 34°41' E 135°17'0 0.0
2018-Jun-05 19:00N 34°41' E 135°17'0 0.0
2018-Jun-05 18:30N 34°41' E 135°17'0 0.0
2018-Jun-05 18:00N 34°41' E 135°17'0 0.0
2018-Jun-05 17:30N 34°41' E 135°17'0 0.0
2018-Jun-05 17:00N 34°41' E 135°17'0 0.0
2018-Jun-05 16:30N 34°41' E 135°17'0 0.0
2018-Jun-05 16:00N 34°41' E 135°17'0 0.0
2018-Jun-05 15:30N 34°41' E 135°17'0 0.0
2018-Jun-05 15:00N 34°41' E 135°17'0 0.0
2018-Jun-05 14:30N 34°41' E 135°17'0 0.0
2018-Jun-05 14:00N 34°41' E 135°17'0 0.0
2018-Jun-05 13:30N 34°41' E 135°17'0 0.0
2018-Jun-05 12:57N 34°41' E 135°17'0 0.0
2018-Jun-05 12:30N 34°41' E 135°17'0 0.0
2018-Jun-05 12:00N 34°41' E 135°17'0 0.0
2018-Jun-05 11:30N 34°41' E 135°17'0 0.0
2018-Jun-05 11:00N 34°41' E 135°17'0 0.0
2018-Jun-05 10:30N 34°41' E 135°17'0 0.0
2018-Jun-05 09:57N 34°41' E 135°17'0 0.0
2018-Jun-05 09:30N 34°41' E 135°17'0 0.0
2018-Jun-05 09:00N 34°41' E 135°17'0 0.0
2018-Jun-05 08:30N 34°41' E 135°17'0 0.0
2018-Jun-05 08:00N 34°41' E 135°17'0 0.0
2018-Jun-05 07:30N 34°41' E 135°17'0 0.1
2018-Jun-05 07:01N 34°41' E 135°17'3 6.9
2018-Jun-05 06:30N 34°37' E 135°18'917.2
2018-Jun-05 06:00N 34°31' E 135°12'917.7
2018-Jun-05 05:30N 34°24' E 135°05'918.0
2018-Jun-05 05:00N 34°16' E 134°59'815.1
2018-Jun-05 04:31N 34°09' E 134°59'816.5
2018-Jun-05 04:01N 34°01' E 134°58'816.2
2018-Jun-05 03:31N 33°53' E 134°57'815.0
2018-Jun-05 03:00N 33°45' E 134°54'  

Dump ship's entire track history